sensor_id;sensor_type;location;lat;lon;timestamp;P1;durP1;ratioP1;P2;durP2;ratioP2
57315;SDS011;43156;50.942;18.144;2023-05-09T00:23:25;18.80;;;7.50;;
57315;SDS011;43156;50.942;18.144;2023-05-09T00:33:25;14.90;;;7.40;;
57315;SDS011;43156;50.942;18.144;2023-05-09T00:43:22;16.00;;;6.40;;
57315;SDS011;43156;50.942;18.144;2023-05-09T00:53:07;6.40;;;5.80;;
57315;SDS011;43156;50.942;18.144;2023-05-09T01:03:01;9.90;;;7.00;;
57315;SDS011;43156;50.942;18.144;2023-05-09T01:34:14;22.20;;;8.00;;
57315;SDS011;43156;50.942;18.144;2023-05-09T01:51:32;10.40;;;5.20;;
57315;SDS011;43156;50.942;18.144;2023-05-09T02:01:36;18.70;;;8.10;;
57315;SDS011;43156;50.942;18.144;2023-05-09T02:11:31;13.10;;;8.40;;
57315;SDS011;43156;50.942;18.144;2023-05-09T02:21:16;15.90;;;6.40;;
57315;SDS011;43156;50.942;18.144;2023-05-09T02:31:05;14.10;;;8.00;;
57315;SDS011;43156;50.942;18.144;2023-05-09T02:41:02;9.00;;;5.70;;
57315;SDS011;43156;50.942;18.144;2023-05-09T02:50:53;15.10;;;9.00;;
57315;SDS011;43156;50.942;18.144;2023-05-09T03:00:50;8.90;;;6.60;;
57315;SDS011;43156;50.942;18.144;2023-05-09T03:10:43;15.20;;;7.10;;
57315;SDS011;43156;50.942;18.144;2023-05-09T03:20:40;19.70;;;7.10;;
57315;SDS011;43156;50.942;18.144;2023-05-09T03:30:41;14.10;;;8.50;;
57315;SDS011;43156;50.942;18.144;2023-05-09T03:40:42;15.30;;;8.20;;
57315;SDS011;43156;50.942;18.144;2023-05-09T03:50:39;8.20;;;7.00;;
57315;SDS011;43156;50.942;18.144;2023-05-09T04:00:39;16.90;;;8.50;;
57315;SDS011;43156;50.942;18.144;2023-05-09T04:10:48;11.90;;;8.40;;
57315;SDS011;43156;50.942;18.144;2023-05-09T04:20:45;19.90;;;8.30;;
57315;SDS011;43156;50.942;18.144;2023-05-09T04:30:40;11.90;;;6.70;;
57315;SDS011;43156;50.942;18.144;2023-05-09T04:40:33;6.70;;;6.00;;
57315;SDS011;43156;50.942;18.144;2023-05-09T04:50:37;13.30;;;5.70;;
57315;SDS011;43156;50.942;18.144;2023-05-09T05:00:34;8.90;;;6.80;;
57315;SDS011;43156;50.942;18.144;2023-05-09T05:10:30;7.10;;;5.60;;
57315;SDS011;43156;50.942;18.144;2023-05-09T05:20:23;9.50;;;7.20;;
57315;SDS011;43156;50.942;18.144;2023-05-09T05:30:17;7.70;;;7.00;;
57315;SDS011;43156;50.942;18.144;2023-05-09T05:40:09;9.80;;;7.30;;
57315;SDS011;43156;50.942;18.144;2023-05-09T05:50:12;9.80;;;7.30;;
57315;SDS011;43156;50.942;18.144;2023-05-09T06:46:49;6.70;;;6.10;;
57315;SDS011;43156;50.942;18.144;2023-05-09T06:56:44;6.50;;;5.10;;
57315;SDS011;43156;50.942;18.144;2023-05-09T07:06:40;4.60;;;4.20;;
57315;SDS011;43156;50.942;18.144;2023-05-09T07:16:34;7.70;;;4.60;;
57315;SDS011;43156;50.942;18.144;2023-05-09T07:26:43;7.30;;;3.60;;
57315;SDS011;43156;50.942;18.144;2023-05-09T07:36:58;3.80;;;3.50;;
57315;SDS011;43156;50.942;18.144;2023-05-09T07:47:03;2.40;;;2.20;;
57315;SDS011;43156;50.942;18.144;2023-05-09T07:57:03;3.30;;;3.00;;
57315;SDS011;43156;50.942;18.144;2023-05-09T08:07:05;3.30;;;3.00;;
57315;SDS011;43156;50.942;18.144;2023-05-09T08:16:54;2.90;;;2.70;;
57315;SDS011;43156;50.942;18.144;2023-05-09T08:26:47;17.70;;;3.40;;
57315;SDS011;43156;50.942;18.144;2023-05-09T08:36:56;3.60;;;2.20;;
57315;SDS011;43156;50.942;18.144;2023-05-09T08:46:58;8.20;;;3.20;;
57315;SDS011;43156;50.942;18.144;2023-05-09T08:56:56;3.70;;;2.80;;
57315;SDS011;43156;50.942;18.144;2023-05-09T09:14:36;3.00;;;2.10;;
57315;SDS011;43156;50.942;18.144;2023-05-09T09:24:46;4.70;;;2.20;;
57315;SDS011;43156;50.942;18.144;2023-05-09T09:34:48;8.70;;;2.90;;
57315;SDS011;43156;50.942;18.144;2023-05-09T09:45:08;2.10;;;1.90;;
57315;SDS011;43156;50.942;18.144;2023-05-09T09:55:17;1.60;;;1.50;;
57315;SDS011;43156;50.942;18.144;2023-05-09T10:05:17;2.60;;;1.70;;
57315;SDS011;43156;50.942;18.144;2023-05-09T10:15:36;2.90;;;1.70;;
57315;SDS011;43156;50.942;18.144;2023-05-09T10:25:50;2.00;;;1.50;;
57315;SDS011;43156;50.942;18.144;2023-05-09T10:36:08;5.70;;;1.90;;
57315;SDS011;43156;50.942;18.144;2023-05-09T10:46:16;1.30;;;1.20;;
57315;SDS011;43156;50.942;18.144;2023-05-09T10:56:35;14.10;;;2.20;;
57315;SDS011;43156;50.942;18.144;2023-05-09T11:07:02;0.90;;;0.90;;
57315;SDS011;43156;50.942;18.144;2023-05-09T11:18:08;4.00;;;1.60;;
57315;SDS011;43156;50.942;18.144;2023-05-09T12:16:52;2.60;;;1.30;;
57315;SDS011;43156;50.942;18.144;2023-05-09T12:26:56;6.60;;;1.10;;
57315;SDS011;43156;50.942;18.144;2023-05-09T12:36:57;4.40;;;1.70;;
57315;SDS011;43156;50.942;18.144;2023-05-09T12:46:55;2.30;;;1.60;;
57315;SDS011;43156;50.942;18.144;2023-05-09T12:56:47;3.10;;;1.90;;
57315;SDS011;43156;50.942;18.144;2023-05-09T13:06:53;1.80;;;1.70;;
57315;SDS011;43156;50.942;18.144;2023-05-09T13:16:55;4.00;;;1.40;;
57315;SDS011;43156;50.942;18.144;2023-05-09T13:26:47;1.30;;;1.20;;
57315;SDS011;43156;50.942;18.144;2023-05-09T13:36:48;4.90;;;1.50;;
57315;SDS011;43156;50.942;18.144;2023-05-09T13:46:41;4.10;;;1.80;;
57315;SDS011;43156;50.942;18.144;2023-05-09T13:56:35;4.80;;;1.90;;
57315;SDS011;43156;50.942;18.144;2023-05-09T14:06:24;6.90;;;2.00;;
57315;SDS011;43156;50.942;18.144;2023-05-09T14:16:20;1.00;;;1.00;;
57315;SDS011;43156;50.942;18.144;2023-05-09T14:26:17;1.60;;;1.50;;
57315;SDS011;43156;50.942;18.144;2023-05-09T14:28:51;4.70;;;1.90;;
57315;SDS011;43156;50.942;18.144;2023-05-09T14:38:41;0.90;;;0.90;;
57315;SDS011;43156;50.942;18.144;2023-05-09T14:48:37;1.60;;;1.50;;
57315;SDS011;43156;50.942;18.144;2023-05-09T14:58:22;3.30;;;1.40;;
57315;SDS011;43156;50.942;18.144;2023-05-09T15:08:14;4.70;;;1.50;;
57315;SDS011;43156;50.942;18.144;2023-05-09T15:18:09;1.50;;;1.40;;
57315;SDS011;43156;50.942;18.144;2023-05-09T15:28:07;3.80;;;2.40;;
57315;SDS011;43156;50.942;18.144;2023-05-09T15:38:10;11.50;;;2.80;;
57315;SDS011;43156;50.942;18.144;2023-05-09T15:48:15;6.30;;;2.40;;
57315;SDS011;43156;50.942;18.144;2023-05-09T15:58:02;3.60;;;1.60;;
57315;SDS011;43156;50.942;18.144;2023-05-09T16:07:56;5.90;;;2.40;;
57315;SDS011;43156;50.942;18.144;2023-05-09T16:17:55;7.40;;;1.70;;
57315;SDS011;43156;50.942;18.144;2023-05-09T16:27:48;2.60;;;2.20;;
57315;SDS011;43156;50.942;18.144;2023-05-09T16:37:40;10.00;;;1.80;;
57315;SDS011;43156;50.942;18.144;2023-05-09T16:47:31;3.40;;;3.10;;
57315;SDS011;43156;50.942;18.144;2023-05-09T16:57:23;3.20;;;2.60;;
57315;SDS011;43156;50.942;18.144;2023-05-09T17:07:16;3.50;;;2.00;;
57315;SDS011;43156;50.942;18.144;2023-05-09T17:17:15;3.30;;;1.70;;
57315;SDS011;43156;50.942;18.144;2023-05-09T18:15:26;4.80;;;3.40;;
57315;SDS011;43156;50.942;18.144;2023-05-09T18:25:14;3.60;;;3.10;;
57315;SDS011;43156;50.942;18.144;2023-05-09T18:35:08;7.50;;;3.10;;
57315;SDS011;43156;50.942;18.144;2023-05-09T18:45:05;5.00;;;3.90;;
57315;SDS011;43156;50.942;18.144;2023-05-09T18:54:52;2.70;;;2.50;;
57315;SDS011;43156;50.942;18.144;2023-05-09T19:04:43;7.80;;;3.10;;
57315;SDS011;43156;50.942;18.144;2023-05-09T19:14:37;6.70;;;4.30;;
57315;SDS011;43156;50.942;18.144;2023-05-09T19:24:21;4.90;;;4.50;;
57315;SDS011;43156;50.942;18.144;2023-05-09T19:34:08;19.60;;;11.80;;
57315;SDS011;43156;50.942;18.144;2023-05-09T19:43:58;7.00;;;6.30;;
57315;SDS011;43156;50.942;18.144;2023-05-09T19:53:52;11.20;;;8.60;;
57315;SDS011;43156;50.942;18.144;2023-05-09T20:03:41;5.00;;;4.50;;
57315;SDS011;43156;50.942;18.144;2023-05-09T20:13:32;17.00;;;5.20;;
57315;SDS011;43156;50.942;18.144;2023-05-09T20:23:26;5.60;;;4.60;;
57315;SDS011;43156;50.942;18.144;2023-05-09T20:33:12;5.90;;;4.20;;
57315;SDS011;43156;50.942;18.144;2023-05-09T20:43:05;5.20;;;4.80;;
57315;SDS011;43156;50.942;18.144;2023-05-09T20:52:53;5.10;;;4.60;;
57315;SDS011;43156;50.942;18.144;2023-05-09T21:02:41;6.30;;;5.30;;
57315;SDS011;43156;50.942;18.144;2023-05-09T21:12:34;12.40;;;6.30;;
57315;SDS011;43156;50.942;18.144;2023-05-09T21:22:19;5.20;;;4.70;;
57315;SDS011;43156;50.942;18.144;2023-05-09T21:32:04;3.80;;;3.50;;
57315;SDS011;43156;50.942;18.144;2023-05-09T21:41:56;9.80;;;5.40;;
57315;SDS011;43156;50.942;18.144;2023-05-09T21:51:45;3.40;;;3.10;;
57315;SDS011;43156;50.942;18.144;2023-05-09T22:01:33;4.90;;;4.00;;
57315;SDS011;43156;50.942;18.144;2023-05-09T22:11:20;9.80;;;4.70;;
57315;SDS011;43156;50.942;18.144;2023-05-09T22:21:18;11.60;;;4.90;;
57315;SDS011;43156;50.942;18.144;2023-05-09T22:31:06;8.20;;;4.10;;
57315;SDS011;43156;50.942;18.144;2023-05-09T22:40:52;7.70;;;4.50;;
57315;SDS011;43156;50.942;18.144;2023-05-09T22:50:43;7.90;;;3.90;;
57315;SDS011;43156;50.942;18.144;2023-05-09T23:00:31;4.90;;;4.40;;
57315;SDS011;43156;50.942;18.144;2023-05-09T23:10:19;4.30;;;3.30;;
57315;SDS011;43156;50.942;18.144;2023-05-09T23:20:09;5.20;;;4.00;;
